Time;durP1;ratioP1;P1;durP2;ratioP2;P2;SDS_P1;SDS_P2;PMS_P1;PMS_P2;Temp;Humidity;BMP_temperature;BMP_pressure;BME280_temperature;BME280_humidity;BME280_pressure;Samples;Min_cycle;Max_cycle;Signal;HPM_P1;HPM_P2
2022/08/06 00:02:08;;;;;;;4.93;4.43;;;;;;;;;;5040131;28;20111;-69
2022/08/06 00:04:34;;;;;;;5.78;4.43;;;;;;;;;;5040491;28;20410;-69
2022/08/06 00:06:59;;;;;;;10.15;4.60;;;;;;;;;;5040187;28;20051;-69
2022/08/06 00:09:32;;;;;;;4.95;4.40;;;;;;;;;;5039836;28;20049;-69
2022/08/06 00:11:59;;;;;;;4.30;3.90;;;;;;;;;;5039890;28;20140;-69
2022/08/06 00:14:29;;;;;;;5.30;4.30;;;;;;;;;;5040557;28;20392;-69
2022/08/06 00:16:55;;;;;;;6.20;4.40;;;;;;;;;;5040068;28;20041;-68
2022/08/06 00:19:20;;;;;;;5.53;4.78;;;;;;;;;;5040129;28;20060;-68
2022/08/06 00:21:46;;;;;;;7.40;4.97;;;;;;;;;;5039241;28;20453;-69
2022/08/06 00:24:12;;;;;;;6.28;4.57;;;;;;;;;;5040448;28;20075;-69
2022/08/06 00:26:38;;;;;;;5.68;4.80;;;;;;;;;;5040010;28;20139;-69
2022/08/06 00:29:04;;;;;;;6.35;4.75;;;;;;;;;;5038944;28;20131;-69
2022/08/06 00:31:30;;;;;;;11.30;4.38;;;;;;;;;;5039326;28;20045;-69
2022/08/06 00:33:56;;;;;;;5.85;4.80;;;;;;;;;;5039945;28;20032;-69
2022/08/06 00:36:25;;;;;;;5.05;4.00;;;;;;;;;;5040009;28;20053;-69
2022/08/06 00:38:52;;;;;;;7.45;4.00;;;;;;;;;;5039979;28;20165;-69
2022/08/06 00:41:18;;;;;;;6.57;3.85;;;;;;;;;;5040323;28;20052;-69
2022/08/06 00:43:43;;;;;;;4.20;3.22;;;;;;;;;;5038968;28;20075;-69
2022/08/06 00:46:09;;;;;;;5.10;3.97;;;;;;;;;;5040048;28;20048;-69
2022/08/06 00:48:34;;;;;;;5.00;3.63;;;;;;;;;;5039839;28;20063;-69
2022/08/06 00:51:00;;;;;;;6.15;3.17;;;;;;;;;;5040292;28;20079;-69
2022/08/06 00:53:25;;;;;;;4.72;3.40;;;;;;;;;;5039159;28;20722;-69
2022/08/06 00:55:51;;;;;;;3.38;2.95;;;;;;;;;;5039196;28;20045;-69
2022/08/06 00:58:16;;;;;;;3.50;3.20;;;;;;;;;;5039806;28;20041;-69
2022/08/06 01:00:41;;;;;;;5.13;3.20;;;;;;;;;;5040097;28;20954;-69
2022/08/06 01:03:10;;;;;;;4.97;3.28;;;;;;;;;;5043606;28;20124;-69
2022/08/06 01:05:35;;;;;;;4.40;3.28;;;;;;;;;;5042818;28;20562;-69
2022/08/06 01:08:01;;;;;;;3.25;2.95;;;;;;;;;;5043481;28;20140;-69
2022/08/06 01:10:27;;;;;;;4.70;3.40;;;;;;;;;;5043504;28;20407;-69
2022/08/06 01:12:53;;;;;;;7.32;3.60;;;;;;;;;;5043367;28;20045;-69
2022/08/06 01:15:18;;;;;;;3.53;2.85;;;;;;;;;;5042856;28;20454;-69
2022/08/06 01:17:50;;;;;;;3.45;2.70;;;;;;;;;;5043084;28;20059;-69
2022/08/06 01:20:23;;;;;;;;;;;;;;;;;;5043763;28;20144;-69
2022/08/06 01:23:20;;;;;;;4.22;2.65;;;;;;;;;;5043198;28;19925;-69
2022/08/06 01:26:04;;;;;;;3.83;2.63;;;;;;;;;;5042316;28;20194;-69
2022/08/06 01:28:34;;;;;;;4.50;2.70;;;;;;;;;;5042993;28;20055;-69
2022/08/06 01:31:06;;;;;;;4.13;2.65;;;;;;;;;;5043266;28;20105;-69
2022/08/06 01:33:38;;;;;;;3.90;2.83;;;;;;;;;;5042999;28;20041;-69
2022/08/06 01:36:07;;;;;;;3.65;2.38;;;;;;;;;;5042540;28;20056;-69
2022/08/06 01:38:38;;;;;;;3.00;2.70;;;;;;;;;;5042554;28;20053;-69
2022/08/06 01:41:07;;;;;;;4.85;2.50;;;;;;;;;;5043027;28;20041;-69
2022/08/06 01:43:36;;;;;;;4.03;2.40;;;;;;;;;;5042780;28;20041;-69
2022/08/06 01:46:02;;;;;;;5.00;2.53;;;;;;;;;;5041892;28;20167;-69
2022/08/06 01:48:30;;;;;;;3.85;2.78;;;;;;;;;;5042596;28;20108;-69
2022/08/06 01:50:59;;;;;;;4.18;2.70;;;;;;;;;;5042399;28;20047;-69
2022/08/06 01:53:31;;;;;;;5.13;2.55;;;;;;;;;;5042775;28;20076;-69
2022/08/06 01:56:00;;;;;;;3.38;2.33;;;;;;;;;;5042040;28;20110;-69
2022/08/06 01:58:34;;;;;;;4.05;2.50;;;;;;;;;;5039113;28;20057;-69
2022/08/06 02:01:03;;;;;;;4.40;2.72;;;;;;;;;;5041211;28;20090;-69
2022/08/06 02:03:47;;;;;;;2.85;2.20;;;;;;;;;;5043294;28;20127;-69
2022/08/06 02:06:18;;;;;;;3.50;2.83;;;;;;;;;;5023978;28;20784;-69
2022/08/06 02:08:46;;;;;;;3.30;2.50;;;;;;;;;;5042321;28;20049;-69
2022/08/06 02:11:12;;;;;;;4.15;2.33;;;;;;;;;;5041477;28;20041;-69
2022/08/06 02:13:40;;;;;;;5.32;2.53;;;;;;;;;;5042622;28;20041;-69
2022/08/06 02:16:07;;;;;;;3.63;2.60;;;;;;;;;;5041809;28;20057;-69
2022/08/06 02:18:37;;;;;;;3.13;2.40;;;;;;;;;;5042127;28;20052;-69
2022/08/06 02:21:14;;;;;;;3.55;2.60;;;;;;;;;;5042252;28;20562;-69
2022/08/06 02:23:41;;;;;;;3.00;2.30;;;;;;;;;;5041925;28;20475;-69
2022/08/06 02:26:09;;;;;;;2.80;2.20;;;;;;;;;;5042350;28;20565;-69
2022/08/06 02:28:36;;;;;;;2.78;2.38;;;;;;;;;;5042012;28;20048;-69
2022/08/06 02:31:02;;;;;;;3.20;2.30;;;;;;;;;;5041880;28;20078;-69
2022/08/06 02:33:28;;;;;;;4.65;2.42;;;;;;;;;;5041876;28;20044;-69
2022/08/06 02:36:03;;;;;;;2.90;2.55;;;;;;;;;;5041006;28;20057;-69
2022/08/06 02:38:36;;;;;;;2.97;2.33;;;;;;;;;;5042116;28;20499;-69
2022/08/06 02:41:16;;;;;;;3.72;2.30;;;;;;;;;;5041763;28;20048;-70
2022/08/06 02:43:50;;;;;;;2.90;1.95;;;;;;;;;;5040406;28;20033;-69
2022/08/06 02:46:36;;;;;;;2.40;2.00;;;;;;;;;;5041491;28;20045;-68
2022/08/06 02:49:10;;;;;;;2.33;2.13;;;;;;;;;;5041722;28;20041;-68
2022/08/06 02:51:40;;;;;;;4.63;2.10;;;;;;;;;;5041788;28;20487;-68
2022/08/06 02:54:10;;;;;;;3.33;2.20;;;;;;;;;;5041193;28;20059;-71
2022/08/06 02:56:40;;;;;;;3.17;2.30;;;;;;;;;;5041592;28;20049;-70
2022/08/06 02:59:08;;;;;;;3.78;2.20;;;;;;;;;;5041579;28;20049;-70
2022/08/06 03:01:41;;;;;;;2.40;2.20;;;;;;;;;;5040412;28;20052;-70
2022/08/06 03:04:08;;;;;;;3.50;2.22;;;;;;;;;;5041112;28;20087;-70
2022/08/06 03:06:36;;;;;;;5.03;1.90;;;;;;;;;;5040798;28;20060;-69
2022/08/06 03:09:04;;;;;;;5.65;2.70;;;;;;;;;;5041093;28;20080;-69
2022/08/06 03:11:33;;;;;;;2.63;2.42;;;;;;;;;;5041142;28;20569;-69
2022/08/06 03:14:03;;;;;;;2.60;2.20;;;;;;;;;;5040834;28;20095;-69
2022/08/06 03:16:35;;;;;;;2.20;2.00;;;;;;;;;;5040396;28;20045;-71
2022/08/06 03:19:01;;;;;;;;;;;;;;;;;;5041790;28;20838;-69
2022/08/06 03:21:28;;;;;;;4.68;2.35;;;;;;;;;;5041525;28;20337;-69
2022/08/06 03:23:56;;;;;;;2.20;2.00;;;;;;;;;;5039510;28;20029;-69
2022/08/06 03:26:22;;;;;;;3.55;2.20;;;;;;;;;;5040863;28;20049;-69
2022/08/06 03:28:48;;;;;;;2.72;2.13;;;;;;;;;;5040862;28;20403;-69
2022/08/06 03:31:14;;;;;;;2.65;2.30;;;;;;;;;;5040610;28;20103;-69
2022/08/06 03:33:40;;;;;;;6.88;2.22;;;;;;;;;;5040335;28;20033;-69
2022/08/06 03:36:06;;;;;;;2.45;2.15;;;;;;;;;;5040586;28;20794;-68
2022/08/06 03:38:39;;;;;;;7.25;2.30;;;;;;;;;;5039798;28;20048;-68
2022/08/06 03:41:06;;;;;;;2.35;2.15;;;;;;;;;;5040771;28;20041;-68
2022/08/06 03:43:32;;;;;;;5.35;2.63;;;;;;;;;;5040424;28;20048;-69
2022/08/06 03:46:01;;;;;;;2.55;2.30;;;;;;;;;;5040093;28;20048;-68
2022/08/06 03:48:32;;;;;;;3.70;2.40;;;;;;;;;;5040933;28;20135;-68
2022/08/06 03:51:02;;;;;;;3.10;2.80;;;;;;;;;;5040092;28;20395;-68
2022/08/06 03:53:28;;;;;;;2.78;2.58;;;;;;;;;;5040638;28;20290;-69
2022/08/06 03:55:58;;;;;;;3.85;3.03;;;;;;;;;;5039638;28;20114;-69
2022/08/06 03:58:26;;;;;;;3.00;2.70;;;;;;;;;;5038578;28;20557;-69
2022/08/06 04:01:11;;;;;;;2.80;2.53;;;;;;;;;;5038213;28;20049;-68
2022/08/06 04:03:38;;;;;;;3.33;3.03;;;;;;;;;;5040685;28;20456;-69
2022/08/06 04:06:09;;;;;;;6.00;2.97;;;;;;;;;;5039445;28;20044;-69
2022/08/06 04:08:35;;;;;;;6.63;2.77;;;;;;;;;;5040362;28;20130;-69
2022/08/06 04:11:01;;;;;;;4.57;2.80;;;;;;;;;;5038515;28;20384;-68
2022/08/06 04:13:27;;;;;;;3.45;2.85;;;;;;;;;;5039783;28;20045;-69
2022/08/06 04:15:54;;;;;;;4.13;3.20;;;;;;;;;;5039241;28;20053;-68
2022/08/06 04:18:24;;;;;;;6.32;3.38;;;;;;;;;;5040434;28;20132;-69
2022/08/06 04:20:52;;;;;;;4.82;3.63;;;;;;;;;;5040393;28;20092;-69
2022/08/06 04:23:18;;;;;;;5.63;4.03;;;;;;;;;;5039919;28;20111;-69
2022/08/06 04:25:48;;;;;;;4.10;3.30;;;;;;;;;;5039759;28;20737;-69
2022/08/06 04:28:15;;;;;;;5.55;3.78;;;;;;;;;;5040033;28;20048;-69
2022/08/06 04:30:40;;;;;;;3.42;3.13;;;;;;;;;;5040127;28;20670;-69
2022/08/06 04:33:11;;;;;;;4.05;3.65;;;;;;;;;;5039752;28;20106;-69
2022/08/06 04:35:38;;;;;;;5.55;4.10;;;;;;;;;;5042005;28;20045;-69
2022/08/06 04:38:04;;;;;;;6.38;4.03;;;;;;;;;;5043323;28;20049;-68
2022/08/06 04:40:31;;;;;;;7.00;4.15;;;;;;;;;;5042636;28;20071;-69
2022/08/06 04:42:56;;;;;;;8.68;4.28;;;;;;;;;;5043745;28;20051;-68
2022/08/06 04:45:23;;;;;;;4.63;4.15;;;;;;;;;;5043679;28;20049;-69
2022/08/06 04:47:49;;;;;;;5.15;4.10;;;;;;;;;;5043395;28;20055;-69
2022/08/06 04:50:14;;;;;;;5.00;4.40;;;;;;;;;;5044088;28;21247;-69
2022/08/06 04:52:40;;;;;;;4.88;3.80;;;;;;;;;;5043415;28;20029;-69
2022/08/06 04:55:06;;;;;;;5.30;4.00;;;;;;;;;;5043146;28;20142;-69
2022/08/06 04:57:32;;;;;;;6.50;4.43;;;;;;;;;;5043819;28;20041;-69
2022/08/06 04:59:58;;;;;;;7.45;5.20;;;;;;;;;;5043537;28;20360;-69
2022/08/06 05:02:23;;;;;;;9.32;5.43;;;;;;;;;;5043454;28;20887;-68
2022/08/06 05:04:55;;;;;;;8.15;5.70;;;;;;;;;;5043594;28;21519;-68
2022/08/06 05:07:28;;;;;;;10.82;6.13;;;;;;;;;;5043087;28;20040;-69
2022/08/06 05:09:58;;;;;;;9.63;6.10;;;;;;;;;;5043481;28;20044;-69
2022/08/06 05:12:38;;;;;;;7.70;6.22;;;;;;;;;;5043218;28;20048;-69
2022/08/06 05:15:09;;;;;;;8.90;5.95;;;;;;;;;;5043049;28;20132;-69
2022/08/06 05:17:44;;;;;;;10.75;6.95;;;;;;;;;;5042446;28;20053;-70
2022/08/06 05:20:19;;;;;;;10.02;6.68;;;;;;;;;;5057113;28;20458;-70
2022/08/06 05:22:51;;;;;;;12.38;8.00;;;;;;;;;;5042553;28;20037;-70
2022/08/06 05:25:17;;;;;;;;;;;;;;;;;;5043466;28;20056;-70
2022/08/06 05:27:43;;;;;;;12.80;6.82;;;;;;;;;;5042222;28;19920;-69
2022/08/06 05:30:09;;;;;;;9.43;6.40;;;;;;;;;;5042230;28;20137;-69
2022/08/06 05:32:45;;;;;;;7.55;6.30;;;;;;;;;;5042749;28;20071;-70
2022/08/06 05:35:12;;;;;;;11.90;7.15;;;;;;;;;;5043139;28;20048;-71
2022/08/06 05:37:37;;;;;;;9.13;6.97;;;;;;;;;;5042506;28;20512;-71
2022/08/06 05:40:04;;;;;;;10.10;6.90;;;;;;;;;;5041815;28;20133;-71
2022/08/06 05:42:30;;;;;;;9.40;6.65;;;;;;;;;;5042936;28;20045;-71
2022/08/06 05:44:55;;;;;;;10.50;7.57;;;;;;;;;;5042924;28;21016;-71
2022/08/06 05:47:24;;;;;;;11.38;7.50;;;;;;;;;;5041843;28;20123;-71
2022/08/06 05:50:00;;;;;;;9.48;7.05;;;;;;;;;;5041484;28;20143;-71
2022/08/06 05:52:37;;;;;;;9.30;7.07;;;;;;;;;;5041834;28;20534;-70
2022/08/06 05:55:13;;;;;;;9.55;6.80;;;;;;;;;;5042526;28;20048;-70
2022/08/06 05:57:43;;;;;;;7.65;6.35;;;;;;;;;;5042100;28;20661;-70
2022/08/06 06:00:12;;;;;;;9.25;6.80;;;;;;;;;;5040494;28;20048;-71
2022/08/06 06:02:44;;;;;;;9.40;6.63;;;;;;;;;;5042474;28;20067;-70
2022/08/06 06:05:11;;;;;;;12.18;7.55;;;;;;;;;;5042285;28;20994;-70
2022/08/06 06:07:37;;;;;;;7.88;6.68;;;;;;;;;;5041877;28;20504;-71
2022/08/06 06:10:04;;;;;;;11.15;7.68;;;;;;;;;;5042010;28;20139;-71
2022/08/06 06:12:31;;;;;;;9.57;6.75;;;;;;;;;;5041607;28;20165;-70
2022/08/06 06:14:57;;;;;;;8.80;6.22;;;;;;;;;;5042406;28;20033;-70
2022/08/06 06:17:44;;;;;;;9.13;7.45;;;;;;;;;;5042225;28;20080;-70
2022/08/06 06:20:20;;;;;;;10.80;6.80;;;;;;;;;;5041512;28;20074;-71
2022/08/06 06:22:56;;;;;;;11.18;7.22;;;;;;;;;;5042042;28;20044;-70
2022/08/06 06:25:27;;;;;;;8.43;6.90;;;;;;;;;;5041767;28;20103;-70
2022/08/06 06:28:08;;;;;;;7.93;5.97;;;;;;;;;;5041766;28;20072;-70
2022/08/06 06:30:58;;;;;;;8.13;6.00;;;;;;;;;;5041752;28;20060;-70
2022/08/06 06:33:49;;;;;;;9.30;6.45;;;;;;;;;;5041949;28;20279;-70
2022/08/06 06:36:41;;;;;;;10.00;6.00;;;;;;;;;;5022859;28;20063;-71
2022/08/06 06:39:31;;;;;;;7.20;5.38;;;;;;;;;;5041985;28;20037;-70
2022/08/06 06:42:12;;;;;;;6.00;5.43;;;;;;;;;;5041218;28;20407;-70
2022/08/06 06:44:53;;;;;;;8.93;6.50;;;;;;;;;;5041640;28;20140;-70
2022/08/06 06:47:36;;;;;;;7.43;5.35;;;;;;;;;;5041344;28;20064;-71
2022/08/06 06:50:25;;;;;;;6.30;5.18;;;;;;;;;;5041211;28;20187;-71
2022/08/06 06:52:52;;;;;;;6.45;5.53;;;;;;;;;;5041684;28;20143;-70
2022/08/06 06:55:28;;;;;;;6.10;5.50;;;;;;;;;;5041532;28;20391;-70
2022/08/06 06:58:03;;;;;;;7.63;6.00;;;;;;;;;;5040349;28;20052;-70
2022/08/06 07:00:30;;;;;;;9.15;5.97;;;;;;;;;;5041446;28;20095;-70
2022/08/06 07:02:56;;;;;;;8.43;5.78;;;;;;;;;;5041167;28;20102;-70
2022/08/06 07:05:22;;;;;;;7.47;6.63;;;;;;;;;;5041628;28;20071;-70
2022/08/06 07:07:51;;;;;;;9.18;6.70;;;;;;;;;;5039684;28;20098;-70
2022/08/06 07:10:18;;;;;;;11.52;6.82;;;;;;;;;;5041205;28;20858;-70
2022/08/06 07:12:45;;;;;;;8.48;6.65;;;;;;;;;;5041291;28;20320;-72
2022/08/06 07:15:12;;;;;;;7.45;6.10;;;;;;;;;;5041193;28;20048;-69
2022/08/06 07:17:39;;;;;;;11.30;6.85;;;;;;;;;;5040872;28;20467;-70
2022/08/06 07:20:11;;;;;;;7.13;6.20;;;;;;;;;;5040028;28;20598;-71
2022/08/06 07:22:41;;;;;;;8.23;6.65;;;;;;;;;;5041058;28;20513;-71
2022/08/06 07:25:08;;;;;;;8.65;6.63;;;;;;;;;;5041148;28;20044;-70
2022/08/06 07:27:39;;;;;;;7.55;5.65;;;;;;;;;;5040836;28;20144;-70
2022/08/06 07:30:06;;;;;;;6.50;5.63;;;;;;;;;;5039896;28;20063;-70
2022/08/06 07:32:35;;;;;;;7.93;5.63;;;;;;;;;;5041302;28;20071;-71
2022/08/06 07:35:03;;;;;;;8.48;6.60;;;;;;;;;;5041200;28;20075;-71
2022/08/06 07:37:29;;;;;;;7.45;6.30;;;;;;;;;;5040735;28;20033;-71
2022/08/06 07:39:56;;;;;;;7.90;6.32;;;;;;;;;;5040049;28;20423;-71
2022/08/06 07:42:24;;;;;;;6.75;6.05;;;;;;;;;;5040701;28;20055;-71
2022/08/06 07:44:53;;;;;;;6.82;6.00;;;;;;;;;;5040530;28;20175;-70
2022/08/06 07:47:22;;;;;;;6.43;5.78;;;;;;;;;;5040265;28;20055;-70
2022/08/06 07:49:53;;;;;;;6.65;6.03;;;;;;;;;;5038323;28;20049;-71
2022/08/06 07:52:20;;;;;;;7.90;6.07;;;;;;;;;;5040047;28;20064;-71
2022/08/06 07:54:46;;;;;;;8.30;5.95;;;;;;;;;;5040334;28;20431;-71
2022/08/06 07:57:13;;;;;;;6.15;5.55;;;;;;;;;;5040362;28;20139;-71
2022/08/06 07:59:39;;;;;;;6.07;5.43;;;;;;;;;;5038968;28;20036;-71
2022/08/06 08:02:05;;;;;;;5.18;4.68;;;;;;;;;;5038453;28;20048;-71
2022/08/06 08:07:16;;;;;;;4.55;4.13;;;;;;;;;;5040344;28;20527;-71
2022/08/06 08:09:43;;;;;;;4.20;3.80;;;;;;;;;;5039763;28;20090;-70
2022/08/06 08:12:11;;;;;;;3.10;2.80;;;;;;;;;;5040027;28;20049;-71
2022/08/06 08:14:39;;;;;;;3.83;2.20;;;;;;;;;;5039643;28;20056;-71
2022/08/06 08:17:04;;;;;;;3.20;2.92;;;;;;;;;;5040272;28;20053;-71
2022/08/06 08:19:32;;;;;;;3.00;2.78;;;;;;;;;;5039970;28;20048;-71
2022/08/06 08:22:19;;;;;;;2.80;2.60;;;;;;;;;;5039791;28;20045;-70
2022/08/06 08:24:47;;;;;;;1.83;1.73;;;;;;;;;;5039575;28;20049;-71
2022/08/06 08:27:14;;;;;;;1.90;1.80;;;;;;;;;;5040305;28;20075;-70
2022/08/06 08:29:41;;;;;;;1.80;1.58;;;;;;;;;;5039920;28;20041;-70
2022/08/06 08:32:08;;;;;;;1.75;1.65;;;;;;;;;;5039006;28;20040;-71
2022/08/06 08:34:35;;;;;;;3.25;1.90;;;;;;;;;;5040120;28;20048;-70
2022/08/06 08:37:01;;;;;;;2.20;1.50;;;;;;;;;;5039644;28;20076;-70
2022/08/06 08:39:30;;;;;;;1.40;1.30;;;;;;;;;;5040337;28;20076;-70
2022/08/06 08:42:02;;;;;;;1.60;1.50;;;;;;;;;;5039583;28;20052;-71
2022/08/06 08:44:29;;;;;;;1.60;1.50;;;;;;;;;;5039807;28;20048;-71
2022/08/06 08:46:58;;;;;;;1.65;1.55;;;;;;;;;;5039049;28;20064;-70
2022/08/06 08:49:43;;;;;;;1.77;1.67;;;;;;;;;;5040172;28;20130;-71
2022/08/06 08:52:14;;;;;;;1.83;1.73;;;;;;;;;;5039402;28;20052;-71
2022/08/06 08:54:44;;;;;;;2.40;1.85;;;;;;;;;;5039960;28;20143;-70
2022/08/06 08:57:10;;;;;;;2.53;2.00;;;;;;;;;;5039221;28;20127;-70
2022/08/06 08:59:36;;;;;;;1.90;1.80;;;;;;;;;;5039451;28;20404;-70
2022/08/06 09:02:04;;;;;;;2.15;2.00;;;;;;;;;;5039178;28;20091;-72
2022/08/06 09:04:31;;;;;;;2.92;2.25;;;;;;;;;;5039682;28;20041;-70
2022/08/06 09:06:57;;;;;;;2.78;2.53;;;;;;;;;;5039706;28;21084;-71
2022/08/06 09:09:24;;;;;;;3.22;2.92;;;;;;;;;;5039148;28;20055;-71
2022/08/06 09:11:49;;;;;;;3.30;3.00;;;;;;;;;;5039437;28;20056;-71
2022/08/06 09:14:15;;;;;;;3.47;3.17;;;;;;;;;;5040168;28;20053;-70
2022/08/06 09:16:40;;;;;;;3.92;3.58;;;;;;;;;;5039222;28;20140;-70
2022/08/06 09:19:06;;;;;;;3.83;3.45;;;;;;;;;;5039521;28;20040;-70
2022/08/06 09:21:33;;;;;;;6.75;4.40;;;;;;;;;;5039806;28;20079;-70
2022/08/06 09:23:58;;;;;;;4.75;4.35;;;;;;;;;;5043052;28;20055;-70
2022/08/06 09:26:24;;;;;;;7.47;4.65;;;;;;;;;;5043176;28;20061;-70
2022/08/06 09:28:49;;;;;;;5.65;5.05;;;;;;;;;;5042964;28;20052;-71
2022/08/06 09:31:17;;;;;;;4.95;4.55;;;;;;;;;;5042569;28;20114;-72
2022/08/06 09:33:52;;;;;;;4.85;4.45;;;;;;;;;;5042799;28;20171;-72
2022/08/06 09:36:19;;;;;;;6.22;4.70;;;;;;;;;;5043680;28;20530;-73
2022/08/06 09:38:46;;;;;;;5.97;5.38;;;;;;;;;;5042709;28;20045;-73
2022/08/06 09:41:12;;;;;;;6.70;5.18;;;;;;;;;;5042665;28;20541;-70
2022/08/06 09:43:39;;;;;;;6.47;5.80;;;;;;;;;;5043479;28;20135;-73
2022/08/06 09:46:05;;;;;;;9.43;7.15;;;;;;;;;;5042341;28;20060;-72
2022/08/06 09:48:31;;;;;;;11.02;9.10;;;;;;;;;;5042757;28;20048;-73
2022/08/06 09:50:57;;;;;;;12.77;9.23;;;;;;;;;;5042792;28;20055;-71
2022/08/06 09:53:23;;;;;;;12.10;9.48;;;;;;;;;;5042150;28;21135;-73
2022/08/06 09:55:50;;;;;;;14.90;9.05;;;;;;;;;;5042431;28;20137;-73
2022/08/06 09:58:26;;;;;;;11.18;9.07;;;;;;;;;;5042657;28;20120;-71
2022/08/06 10:00:52;;;;;;;11.05;9.30;;;;;;;;;;5042589;28;20415;-71
2022/08/06 10:03:18;;;;;;;11.13;8.38;;;;;;;;;;5041980;28;20040;-72
2022/08/06 10:05:43;;;;;;;14.35;8.77;;;;;;;;;;5042362;28;20106;-75
2022/08/06 10:08:11;;;;;;;10.65;8.88;;;;;;;;;;5042344;28;20053;-73
2022/08/06 10:10:51;;;;;;;13.85;9.30;;;;;;;;;;5042351;28;20599;-72
2022/08/06 10:13:26;;;;;;;10.30;9.02;;;;;;;;;;5042282;28;20040;-73
2022/08/06 10:15:58;;;;;;;13.18;8.68;;;;;;;;;;5041667;28;20059;-73
2022/08/06 10:18:37;;;;;;;;;;;;;;;;;;5041482;28;20098;-71
2022/08/06 10:21:25;;;;;;;7.05;6.07;;;;;;;;;;5042210;28;19943;-69
2022/08/06 10:23:53;;;;;;;9.40;7.93;;;;;;;;;;5041601;28;20037;-70
2022/08/06 10:26:27;;;;;;;8.65;7.47;;;;;;;;;;5042105;28;20518;-73
2022/08/06 10:28:53;;;;;;;8.13;6.82;;;;;;;;;;5042255;28;20544;-69
2022/08/06 10:31:20;;;;;;;9.05;7.50;;;;;;;;;;5041027;28;20131;-71
2022/08/06 10:34:24;;;;;;;7.93;6.63;;;;;;;;;;5041026;28;20049;-74
2022/08/06 10:36:55;;;;;;;9.38;6.80;;;;;;;;;;5035481;28;20052;-69
2022/08/06 10:39:26;;;;;;;8.98;6.28;;;;;;;;;;5041815;28;20104;-73
2022/08/06 10:41:55;;;;;;;7.60;6.90;;;;;;;;;;5041150;28;20543;-73
2022/08/06 10:44:22;;;;;;;7.50;6.20;;;;;;;;;;5041636;28;20045;-74
2022/08/06 10:46:51;;;;;;;7.78;7.00;;;;;;;;;;5041705;28;20560;-72
2022/08/06 10:49:19;;;;;;;7.07;5.80;;;;;;;;;;5041477;28;20152;-73
2022/08/06 10:51:45;;;;;;;6.93;6.22;;;;;;;;;;5041135;28;20044;-70
2022/08/06 10:54:11;;;;;;;7.63;6.75;;;;;;;;;;5041618;28;20411;-71
2022/08/06 10:56:37;;;;;;;6.90;6.28;;;;;;;;;;5041611;28;20048;-74
2022/08/06 10:59:05;;;;;;;7.05;6.15;;;;;;;;;;5041024;28;20098;-72
2022/08/06 11:01:54;;;;;;;6.97;6.00;;;;;;;;;;5041883;28;21081;-71
2022/08/06 11:04:37;;;;;;;9.45;7.82;;;;;;;;;;5039046;28;20045;-72
2022/08/06 11:07:16;;;;;;;7.00;6.30;;;;;;;;;;5041289;28;20991;-73
2022/08/06 11:10:04;;;;;;;7.63;5.78;;;;;;;;;;5041101;28;20829;-73
2022/08/06 11:12:46;;;;;;;7.78;6.75;;;;;;;;;;5053232;28;20060;-70
2022/08/06 11:15:12;;;;;;;6.65;6.03;;;;;;;;;;5041347;28;20083;-71
2022/08/06 11:17:43;;;;;;;7.25;6.00;;;;;;;;;;5040845;28;20076;-73
2022/08/06 11:20:32;;;;;;;6.97;5.88;;;;;;;;;;5040124;28;20052;-72
2022/08/06 11:23:01;;;;;;;7.22;6.53;;;;;;;;;;5040661;28;20055;-71
2022/08/06 11:25:47;;;;;;;10.43;6.57;;;;;;;;;;5041178;28;20160;-74
2022/08/06 11:28:15;;;;;;;7.07;6.38;;;;;;;;;;5040437;28;20138;-71
2022/08/06 11:30:49;;;;;;;6.97;6.22;;;;;;;;;;5041160;28;20072;-74
2022/08/06 11:33:19;;;;;;;6.03;5.43;;;;;;;;;;5040367;28;20063;-71
2022/08/06 11:35:50;;;;;;;6.13;5.53;;;;;;;;;;5040296;28;20066;-70
2022/08/06 11:38:46;;;;;;;8.23;7.00;;;;;;;;;;5040665;28;20049;-73
2022/08/06 11:41:25;;;;;;;5.97;5.32;;;;;;;;;;5040813;28;20577;-69
2022/08/06 11:43:53;;;;;;;6.60;5.93;;;;;;;;;;5021547;28;20624;-70
2022/08/06 11:46:23;;;;;;;7.35;6.65;;;;;;;;;;5040322;28;20045;-73
2022/08/06 11:49:02;;;;;;;8.38;6.13;;;;;;;;;;5040724;28;20057;-73
2022/08/06 11:51:41;;;;;;;6.75;6.05;;;;;;;;;;5039417;28;20056;-71
2022/08/06 11:54:20;;;;;;;6.68;5.72;;;;;;;;;;5039849;28;20053;-74
2022/08/06 11:56:58;;;;;;;8.43;6.00;;;;;;;;;;5040605;28;20059;-70
2022/08/06 11:59:24;;;;;;;8.18;5.88;;;;;;;;;;5040618;28;20053;-72
2022/08/06 12:01:49;;;;;;;7.30;5.40;;;;;;;;;;5039827;28;20067;-74
2022/08/06 12:04:40;;;;;;;5.95;5.43;;;;;;;;;;5039910;28;20109;-73
2022/08/06 12:07:25;;;;;;;5.28;4.78;;;;;;;;;;5040228;28;20049;-73
2022/08/06 12:10:06;;;;;;;5.00;4.60;;;;;;;;;;5038319;28;20052;-70
2022/08/06 12:12:32;;;;;;;8.80;5.22;;;;;;;;;;5040251;28;20495;-73
2022/08/06 12:15:01;;;;;;;5.20;4.80;;;;;;;;;;5040224;28;20082;-70
2022/08/06 12:17:28;;;;;;;9.48;5.22;;;;;;;;;;5039713;28;20044;-70
2022/08/06 12:19:57;;;;;;;6.63;6.03;;;;;;;;;;5039833;28;20423;-71
2022/08/06 12:22:24;;;;;;;7.38;6.30;;;;;;;;;;5040575;28;20102;-71
2022/08/06 12:24:54;;;;;;;6.65;5.85;;;;;;;;;;5039042;28;20056;-74
2022/08/06 12:27:20;;;;;;;6.05;5.43;;;;;;;;;;5038150;28;20514;-73
2022/08/06 12:29:46;;;;;;;6.93;5.45;;;;;;;;;;5038683;28;20144;-73
2022/08/06 12:32:35;;;;;;;5.97;5.28;;;;;;;;;;5038539;28;20120;-70
2022/08/06 12:35:03;;;;;;;5.75;4.93;;;;;;;;;;5038906;28;20102;-71
2022/08/06 12:37:37;;;;;;;7.32;6.15;;;;;;;;;;5039474;28;20044;-72
2022/08/06 12:42:51;;;;;;;6.07;5.28;;;;;;;;;;5040250;28;20045;-73
2022/08/06 12:45:21;;;;;;;6.78;6.03;;;;;;;;;;5039888;28;20067;-70
2022/08/06 12:47:59;;;;;;;7.03;5.22;;;;;;;;;;5038690;28;20045;-72
2022/08/06 12:50:26;;;;;;;6.72;6.00;;;;;;;;;;5040248;28;20087;-72
2022/08/06 12:53:15;;;;;;;10.38;6.20;;;;;;;;;;5040650;28;20128;-72
2022/08/06 12:55:47;;;;;;;9.63;5.90;;;;;;;;;;5040518;28;20045;-72
2022/08/06 12:58:18;;;;;;;6.38;5.57;;;;;;;;;;5042734;28;20057;-69
2022/08/06 13:00:48;;;;;;;7.32;5.53;;;;;;;;;;5043607;28;20522;-71
2022/08/06 13:03:14;;;;;;;6.05;5.45;;;;;;;;;;5043795;28;20507;-70
2022/08/06 13:05:43;;;;;;;6.57;5.72;;;;;;;;;;5044219;28;20048;-71
2022/08/06 13:08:09;;;;;;;5.55;5.05;;;;;;;;;;5042565;28;20044;-71
2022/08/06 13:10:34;;;;;;;8.63;5.63;;;;;;;;;;5043930;28;20060;-71
2022/08/06 13:13:04;;;;;;;5.80;5.30;;;;;;;;;;5043986;28;20048;-70
2022/08/06 13:15:30;;;;;;;5.70;5.20;;;;;;;;;;5043499;28;20045;-68
2022/08/06 13:18:16;;;;;;;6.07;5.47;;;;;;;;;;5042834;28;20091;-70
2022/08/06 13:20:45;;;;;;;5.95;5.15;;;;;;;;;;5043156;28;20053;-72
2022/08/06 13:23:13;;;;;;;12.98;5.85;;;;;;;;;;5043380;28;20052;-69
2022/08/06 13:25:47;;;;;;;7.18;6.18;;;;;;;;;;5043230;28;20091;-71
2022/08/06 13:28:15;;;;;;;8.55;6.25;;;;;;;;;;5041150;28;20106;-72
2022/08/06 13:30:45;;;;;;;8.52;6.70;;;;;;;;;;5042700;28;20136;-69
2022/08/06 13:33:31;;;;;;;9.77;5.97;;;;;;;;;;5043106;28;20053;-71
2022/08/06 13:36:08;;;;;;;6.47;5.88;;;;;;;;;;5041678;28;20598;-68
2022/08/06 13:38:35;;;;;;;7.60;6.85;;;;;;;;;;5042525;28;20049;-71
2022/08/06 13:41:02;;;;;;;11.70;6.55;;;;;;;;;;5043038;28;20144;-68
2022/08/06 13:43:42;;;;;;;8.95;7.03;;;;;;;;;;5042304;28;20052;-70
2022/08/06 13:46:14;;;;;;;7.75;6.95;;;;;;;;;;5042399;28;20068;-71
2022/08/06 13:48:52;;;;;;;7.93;7.13;;;;;;;;;;5042604;28;20048;-67
2022/08/06 13:51:19;;;;;;;7.50;6.35;;;;;;;;;;5043149;28;20052;-73
2022/08/06 13:53:45;;;;;;;8.10;6.85;;;;;;;;;;5041911;28;20059;-74
2022/08/06 13:56:13;;;;;;;7.75;6.72;;;;;;;;;;5043630;28;20080;-73
2022/08/06 13:58:38;;;;;;;12.95;7.53;;;;;;;;;;5042681;28;20551;-71
2022/08/06 14:01:04;;;;;;;8.40;7.28;;;;;;;;;;5042590;28;20107;-70
2022/08/06 14:03:30;;;;;;;7.57;6.70;;;;;;;;;;5041987;28;20164;-68
2022/08/06 14:05:55;;;;;;;8.65;6.78;;;;;;;;;;5042482;28;20053;-72
2022/08/06 14:08:21;;;;;;;8.50;6.85;;;;;;;;;;5041796;28;20045;-69
2022/08/06 14:10:46;;;;;;;8.75;6.80;;;;;;;;;;5042309;28;20415;-68
2022/08/06 14:13:18;;;;;;;8.73;7.05;;;;;;;;;;5042693;28;20037;-70
2022/08/06 14:15:46;;;;;;;8.48;6.40;;;;;;;;;;5042120;28;20462;-68
2022/08/06 14:18:12;;;;;;;7.43;6.72;;;;;;;;;;5042057;28;20647;-71
2022/08/06 14:20:38;;;;;;;9.48;7.07;;;;;;;;;;5042398;28;20049;-68
2022/08/06 14:23:03;;;;;;;7.07;6.38;;;;;;;;;;5042214;28;20644;-69
2022/08/06 14:25:29;;;;;;;7.50;6.25;;;;;;;;;;5041802;28;20055;-71
2022/08/06 14:27:55;;;;;;;6.50;5.90;;;;;;;;;;5041314;28;20080;-69
2022/08/06 14:30:21;;;;;;;8.85;6.15;;;;;;;;;;5042301;28;20053;-71
2022/08/06 14:32:46;;;;;;;9.70;6.68;;;;;;;;;;5041746;28;20147;-67
2022/08/06 14:35:15;;;;;;;9.27;6.55;;;;;;;;;;5042460;28;20202;-71
2022/08/06 14:37:42;;;;;;;7.18;6.50;;;;;;;;;;5041121;28;20037;-71
2022/08/06 14:40:09;;;;;;;8.80;7.90;;;;;;;;;;5041914;28;20045;-71
2022/08/06 14:45:19;;;;;;;9.25;6.72;;;;;;;;;;5041956;28;20052;-71
2022/08/06 14:47:44;;;;;;;8.05;7.25;;;;;;;;;;5040925;28;20400;-72
2022/08/06 14:50:10;;;;;;;8.45;6.90;;;;;;;;;;5041194;28;20135;-71
2022/08/06 14:52:35;;;;;;;9.70;6.82;;;;;;;;;;5041521;28;20132;-71
2022/08/06 14:55:00;;;;;;;9.38;7.47;;;;;;;;;;5041631;28;20724;-69
2022/08/06 14:57:27;;;;;;;8.95;7.63;;;;;;;;;;5041459;28;20048;-71
2022/08/06 14:59:53;;;;;;;9.20;7.95;;;;;;;;;;5040629;28;20048;-71
2022/08/06 15:02:23;;;;;;;8.05;7.25;;;;;;;;;;5041559;28;20055;-68
2022/08/06 15:04:49;;;;;;;9.90;7.10;;;;;;;;;;5041483;28;20059;-71
2022/08/06 15:07:14;;;;;;;8.32;7.53;;;;;;;;;;5041301;28;20411;-71
2022/08/06 15:09:40;;;;;;;8.85;7.95;;;;;;;;;;5040890;28;20491;-70